sensor_id;sensor_type;location;lat;lon;timestamp;P1;durP1;ratioP1;P2;durP2;ratioP2
57842;SDS011;43673;51.058;3.734;2022-08-04T00:00:19;7.35;;;3.60;;
57842;SDS011;43673;51.058;3.734;2022-08-04T00:02:55;6.82;;;4.05;;
57842;SDS011;43673;51.058;3.734;2022-08-04T00:10:46;8.20;;;3.63;;
57842;SDS011;43673;51.058;3.734;2022-08-04T00:13:15;8.30;;;4.32;;
57842;SDS011;43673;51.058;3.734;2022-08-04T00:15:46;6.97;;;4.25;;
57842;SDS011;43673;51.058;3.734;2022-08-04T00:21:12;10.07;;;4.03;;
57842;SDS011;43673;51.058;3.734;2022-08-04T00:23:42;9.02;;;4.20;;
57842;SDS011;43673;51.058;3.734;2022-08-04T00:26:11;9.57;;;3.97;;
57842;SDS011;43673;51.058;3.734;2022-08-04T00:28:40;12.38;;;3.70;;
57842;SDS011;43673;51.058;3.734;2022-08-04T00:31:08;6.75;;;3.45;;
57842;SDS011;43673;51.058;3.734;2022-08-04T00:33:36;7.80;;;3.25;;
57842;SDS011;43673;51.058;3.734;2022-08-04T00:36:02;12.18;;;3.22;;
57842;SDS011;43673;51.058;3.734;2022-08-04T00:38:29;7.78;;;4.10;;
57842;SDS011;43673;51.058;3.734;2022-08-04T00:41:02;5.88;;;3.63;;
57842;SDS011;43673;51.058;3.734;2022-08-04T00:57:09;7.38;;;3.60;;
57842;SDS011;43673;51.058;3.734;2022-08-04T01:02:31;6.38;;;3.45;;
57842;SDS011;43673;51.058;3.734;2022-08-04T01:16:15;7.07;;;4.18;;
57842;SDS011;43673;51.058;3.734;2022-08-04T01:18:51;9.20;;;4.22;;
57842;SDS011;43673;51.058;3.734;2022-08-04T01:27:25;9.23;;;4.90;;
57842;SDS011;43673;51.058;3.734;2022-08-04T01:30:06;7.65;;;4.45;;
57842;SDS011;43673;51.058;3.734;2022-08-04T01:32:36;7.97;;;4.28;;
57842;SDS011;43673;51.058;3.734;2022-08-04T01:35:03;8.15;;;3.88;;
57842;SDS011;43673;51.058;3.734;2022-08-04T01:40:07;6.30;;;3.55;;
57842;SDS011;43673;51.058;3.734;2022-08-04T01:42:33;8.63;;;3.83;;
57842;SDS011;43673;51.058;3.734;2022-08-04T01:45:18;7.00;;;4.25;;
57842;SDS011;43673;51.058;3.734;2022-08-04T01:47:49;9.00;;;4.35;;
57842;SDS011;43673;51.058;3.734;2022-08-04T01:50:16;4.40;;;3.55;;
57842;SDS011;43673;51.058;3.734;2022-08-04T01:52:42;10.85;;;4.50;;
57842;SDS011;43673;51.058;3.734;2022-08-04T01:55:09;11.52;;;4.22;;
57842;SDS011;43673;51.058;3.734;2022-08-04T01:57:40;8.80;;;3.88;;
57842;SDS011;43673;51.058;3.734;2022-08-04T02:00:08;7.10;;;4.05;;
57842;SDS011;43673;51.058;3.734;2022-08-04T02:02:35;8.98;;;4.10;;
57842;SDS011;43673;51.058;3.734;2022-08-04T02:05:00;6.15;;;3.40;;
57842;SDS011;43673;51.058;3.734;2022-08-04T02:12:40;6.82;;;3.75;;
57842;SDS011;43673;51.058;3.734;2022-08-04T02:21:14;4.38;;;2.83;;
57842;SDS011;43673;51.058;3.734;2022-08-04T02:23:43;7.97;;;3.72;;
57842;SDS011;43673;51.058;3.734;2022-08-04T02:26:21;10.20;;;3.40;;
57842;SDS011;43673;51.058;3.734;2022-08-04T02:29:00;5.78;;;3.47;;
57842;SDS011;43673;51.058;3.734;2022-08-04T02:36:53;5.47;;;4.03;;
57842;SDS011;43673;51.058;3.734;2022-08-04T02:39:21;5.50;;;3.80;;
57842;SDS011;43673;51.058;3.734;2022-08-04T02:41:49;5.85;;;4.15;;
57842;SDS011;43673;51.058;3.734;2022-08-04T02:44:21;10.27;;;3.75;;
57842;SDS011;43673;51.058;3.734;2022-08-04T02:46:50;7.43;;;4.32;;
57842;SDS011;43673;51.058;3.734;2022-08-04T02:49:18;5.95;;;3.40;;
57842;SDS011;43673;51.058;3.734;2022-08-04T02:51:46;6.85;;;4.28;;
57842;SDS011;43673;51.058;3.734;2022-08-04T02:56:43;12.25;;;3.78;;
57842;SDS011;43673;51.058;3.734;2022-08-04T02:59:11;11.77;;;4.03;;
57842;SDS011;43673;51.058;3.734;2022-08-04T03:01:38;7.22;;;3.78;;
57842;SDS011;43673;51.058;3.734;2022-08-04T03:28:57;9.35;;;4.20;;
57842;SDS011;43673;51.058;3.734;2022-08-04T03:35:00;10.55;;;4.70;;
57842;SDS011;43673;51.058;3.734;2022-08-04T03:42:43;6.40;;;3.47;;
57842;SDS011;43673;51.058;3.734;2022-08-04T03:48:08;8.65;;;4.18;;
57842;SDS011;43673;51.058;3.734;2022-08-04T03:51:06;7.85;;;3.78;;
57842;SDS011;43673;51.058;3.734;2022-08-04T03:59:48;7.20;;;4.25;;
57842;SDS011;43673;51.058;3.734;2022-08-04T04:27:00;16.25;;;5.35;;
57842;SDS011;43673;51.058;3.734;2022-08-04T04:29:59;10.73;;;5.30;;
57842;SDS011;43673;51.058;3.734;2022-08-04T04:35:20;8.88;;;5.00;;
57842;SDS011;43673;51.058;3.734;2022-08-04T04:38:11;9.30;;;5.93;;
57842;SDS011;43673;51.058;3.734;2022-08-04T04:46:02;10.80;;;5.20;;
57842;SDS011;43673;51.058;3.734;2022-08-04T04:51:35;11.65;;;5.28;;
57842;SDS011;43673;51.058;3.734;2022-08-04T04:57:20;9.52;;;6.55;;
57842;SDS011;43673;51.058;3.734;2022-08-04T04:59:54;13.45;;;6.45;;
57842;SDS011;43673;51.058;3.734;2022-08-04T05:05:05;16.30;;;11.90;;
57842;SDS011;43673;51.058;3.734;2022-08-04T05:13:31;23.33;;;15.32;;
57842;SDS011;43673;51.058;3.734;2022-08-04T05:16:24;28.17;;;15.93;;
57842;SDS011;43673;51.058;3.734;2022-08-04T05:19:01;29.73;;;15.65;;
57842;SDS011;43673;51.058;3.734;2022-08-04T05:24:09;20.67;;;13.95;;
57842;SDS011;43673;51.058;3.734;2022-08-04T05:26:40;28.50;;;18.07;;
57842;SDS011;43673;51.058;3.734;2022-08-04T05:29:10;28.63;;;16.83;;
57842;SDS011;43673;51.058;3.734;2022-08-04T05:31:44;29.65;;;17.10;;
57842;SDS011;43673;51.058;3.734;2022-08-04T05:34:17;31.05;;;18.83;;
57842;SDS011;43673;51.058;3.734;2022-08-04T05:36:50;34.67;;;19.10;;
57842;SDS011;43673;51.058;3.734;2022-08-04T05:39:23;32.17;;;20.33;;
57842;SDS011;43673;51.058;3.734;2022-08-04T05:41:50;35.45;;;18.75;;
57842;SDS011;43673;51.058;3.734;2022-08-04T05:44:17;38.80;;;21.60;;
57842;SDS011;43673;51.058;3.734;2022-08-04T05:46:47;33.78;;;18.10;;
57842;SDS011;43673;51.058;3.734;2022-08-04T05:49:15;26.63;;;15.73;;
57842;SDS011;43673;51.058;3.734;2022-08-04T05:51:42;28.88;;;18.52;;
57842;SDS011;43673;51.058;3.734;2022-08-04T05:54:10;33.85;;;20.45;;
57842;SDS011;43673;51.058;3.734;2022-08-04T05:56:36;30.20;;;19.27;;
57842;SDS011;43673;51.058;3.734;2022-08-04T05:59:03;24.73;;;16.35;;
57842;SDS011;43673;51.058;3.734;2022-08-04T06:01:30;22.95;;;15.32;;
57842;SDS011;43673;51.058;3.734;2022-08-04T06:03:58;28.23;;;18.63;;
57842;SDS011;43673;51.058;3.734;2022-08-04T06:06:26;20.77;;;14.43;;
57842;SDS011;43673;51.058;3.734;2022-08-04T06:08:54;19.90;;;14.35;;
57842;SDS011;43673;51.058;3.734;2022-08-04T06:11:20;24.27;;;16.23;;
57842;SDS011;43673;51.058;3.734;2022-08-04T06:13:50;21.45;;;16.35;;
57842;SDS011;43673;51.058;3.734;2022-08-04T06:16:21;23.45;;;15.15;;
57842;SDS011;43673;51.058;3.734;2022-08-04T06:18:48;23.00;;;16.55;;
57842;SDS011;43673;51.058;3.734;2022-08-04T06:21:21;23.58;;;15.25;;
57842;SDS011;43673;51.058;3.734;2022-08-04T06:23:49;19.83;;;14.88;;
57842;SDS011;43673;51.058;3.734;2022-08-04T06:26:16;16.60;;;12.80;;
57842;SDS011;43673;51.058;3.734;2022-08-04T06:28:47;18.27;;;13.65;;
57842;SDS011;43673;51.058;3.734;2022-08-04T06:31:18;16.33;;;11.93;;
57842;SDS011;43673;51.058;3.734;2022-08-04T06:34:05;17.23;;;13.57;;
57842;SDS011;43673;51.058;3.734;2022-08-04T06:36:32;21.00;;;11.73;;
57842;SDS011;43673;51.058;3.734;2022-08-04T06:39:02;14.33;;;10.50;;
57842;SDS011;43673;51.058;3.734;2022-08-04T06:41:29;17.55;;;12.07;;
57842;SDS011;43673;51.058;3.734;2022-08-04T06:44:00;14.63;;;11.32;;
57842;SDS011;43673;51.058;3.734;2022-08-04T06:46:28;10.82;;;9.18;;
57842;SDS011;43673;51.058;3.734;2022-08-04T06:48:55;12.82;;;10.77;;
57842;SDS011;43673;51.058;3.734;2022-08-04T06:51:22;11.05;;;9.65;;
57842;SDS011;43673;51.058;3.734;2022-08-04T06:53:49;10.68;;;9.10;;
57842;SDS011;43673;51.058;3.734;2022-08-04T06:56:15;11.43;;;8.35;;
57842;SDS011;43673;51.058;3.734;2022-08-04T06:58:44;8.60;;;6.38;;
57842;SDS011;43673;51.058;3.734;2022-08-04T07:01:14;9.55;;;7.75;;
57842;SDS011;43673;51.058;3.734;2022-08-04T07:03:42;10.68;;;8.02;;
57842;SDS011;43673;51.058;3.734;2022-08-04T07:06:08;10.30;;;7.60;;
57842;SDS011;43673;51.058;3.734;2022-08-04T07:08:34;9.07;;;5.75;;
57842;SDS011;43673;51.058;3.734;2022-08-04T07:11:00;11.82;;;7.97;;
57842;SDS011;43673;51.058;3.734;2022-08-04T07:13:26;10.23;;;7.78;;
57842;SDS011;43673;51.058;3.734;2022-08-04T07:15:54;11.75;;;7.63;;
57842;SDS011;43673;51.058;3.734;2022-08-04T07:18:21;10.55;;;8.05;;
57842;SDS011;43673;51.058;3.734;2022-08-04T07:20:47;8.80;;;7.00;;
57842;SDS011;43673;51.058;3.734;2022-08-04T07:23:14;8.40;;;7.55;;
57842;SDS011;43673;51.058;3.734;2022-08-04T07:25:41;8.10;;;6.43;;
57842;SDS011;43673;51.058;3.734;2022-08-04T07:28:08;8.57;;;6.68;;
57842;SDS011;43673;51.058;3.734;2022-08-04T07:30:34;9.65;;;7.70;;
57842;SDS011;43673;51.058;3.734;2022-08-04T07:33:02;9.98;;;8.43;;
57842;SDS011;43673;51.058;3.734;2022-08-04T07:35:28;9.77;;;8.10;;
57842;SDS011;43673;51.058;3.734;2022-08-04T07:37:54;8.70;;;7.80;;
57842;SDS011;43673;51.058;3.734;2022-08-04T07:40:20;11.57;;;7.45;;
57842;SDS011;43673;51.058;3.734;2022-08-04T07:42:46;12.93;;;8.82;;
57842;SDS011;43673;51.058;3.734;2022-08-04T07:45:12;9.80;;;8.30;;
57842;SDS011;43673;51.058;3.734;2022-08-04T07:47:41;17.08;;;8.25;;
57842;SDS011;43673;51.058;3.734;2022-08-04T07:50:10;9.25;;;7.25;;
57842;SDS011;43673;51.058;3.734;2022-08-04T07:52:36;10.95;;;6.18;;
57842;SDS011;43673;51.058;3.734;2022-08-04T07:55:03;7.53;;;6.45;;
57842;SDS011;43673;51.058;3.734;2022-08-04T07:57:29;7.82;;;6.53;;
57842;SDS011;43673;51.058;3.734;2022-08-04T07:59:55;6.80;;;6.20;;
57842;SDS011;43673;51.058;3.734;2022-08-04T08:02:21;8.40;;;6.20;;
57842;SDS011;43673;51.058;3.734;2022-08-04T08:04:48;11.77;;;7.60;;
57842;SDS011;43673;51.058;3.734;2022-08-04T08:07:14;8.15;;;6.10;;
57842;SDS011;43673;51.058;3.734;2022-08-04T08:09:40;12.35;;;7.25;;
57842;SDS011;43673;51.058;3.734;2022-08-04T08:12:06;8.88;;;5.95;;
57842;SDS011;43673;51.058;3.734;2022-08-04T08:14:34;7.68;;;5.05;;
57842;SDS011;43673;51.058;3.734;2022-08-04T08:17:00;9.52;;;5.93;;
57842;SDS011;43673;51.058;3.734;2022-08-04T08:19:26;8.35;;;4.82;;
57842;SDS011;43673;51.058;3.734;2022-08-04T08:21:52;7.82;;;6.28;;
57842;SDS011;43673;51.058;3.734;2022-08-04T08:24:18;7.60;;;5.28;;
57842;SDS011;43673;51.058;3.734;2022-08-04T08:26:44;10.00;;;6.00;;
57842;SDS011;43673;51.058;3.734;2022-08-04T08:29:11;9.90;;;6.60;;
57842;SDS011;43673;51.058;3.734;2022-08-04T08:31:37;6.85;;;4.65;;
57842;SDS011;43673;51.058;3.734;2022-08-04T08:34:03;7.18;;;5.95;;
57842;SDS011;43673;51.058;3.734;2022-08-04T08:36:37;7.15;;;4.65;;
57842;SDS011;43673;51.058;3.734;2022-08-04T08:39:15;7.43;;;5.47;;
57842;SDS011;43673;51.058;3.734;2022-08-04T08:56:09;8.63;;;6.88;;
57842;SDS011;43673;51.058;3.734;2022-08-04T08:59:12;12.63;;;6.55;;
57842;SDS011;43673;51.058;3.734;2022-08-04T09:10:07;13.57;;;9.75;;
57842;SDS011;43673;51.058;3.734;2022-08-04T09:12:51;9.43;;;7.65;;
57842;SDS011;43673;51.058;3.734;2022-08-04T09:15:32;14.73;;;12.32;;
57842;SDS011;43673;51.058;3.734;2022-08-04T09:18:04;12.45;;;11.23;;
57842;SDS011;43673;51.058;3.734;2022-08-04T09:21:04;12.65;;;11.15;;
57842;SDS011;43673;51.058;3.734;2022-08-04T09:26:32;12.60;;;9.52;;
57842;SDS011;43673;51.058;3.734;2022-08-04T09:31:45;12.18;;;8.55;;
57842;SDS011;43673;51.058;3.734;2022-08-04T09:35:04;10.18;;;8.15;;
57842;SDS011;43673;51.058;3.734;2022-08-04T09:42:56;9.05;;;6.80;;
57842;SDS011;43673;51.058;3.734;2022-08-04T09:46:00;8.43;;;5.95;;
57842;SDS011;43673;51.058;3.734;2022-08-04T09:48:50;9.38;;;5.60;;
57842;SDS011;43673;51.058;3.734;2022-08-04T09:54:24;8.90;;;5.03;;
57842;SDS011;43673;51.058;3.734;2022-08-04T09:57:24;6.25;;;4.55;;
57842;SDS011;43673;51.058;3.734;2022-08-04T10:00:13;5.10;;;3.83;;
57842;SDS011;43673;51.058;3.734;2022-08-04T10:02:52;7.40;;;3.78;;
57842;SDS011;43673;51.058;3.734;2022-08-04T10:05:28;8.00;;;5.37;;
57842;SDS011;43673;51.058;3.734;2022-08-04T10:13:57;6.20;;;5.07;;
57842;SDS011;43673;51.058;3.734;2022-08-04T10:21:58;5.83;;;3.70;;
57842;SDS011;43673;51.058;3.734;2022-08-04T10:30:08;5.63;;;4.07;;
57842;SDS011;43673;51.058;3.734;2022-08-04T10:35:43;6.45;;;3.78;;
57842;SDS011;43673;51.058;3.734;2022-08-04T10:44:15;7.47;;;4.00;;
57842;SDS011;43673;51.058;3.734;2022-08-04T10:46:49;5.85;;;3.90;;
57842;SDS011;43673;51.058;3.734;2022-08-04T10:49:33;4.65;;;3.92;;
57842;SDS011;43673;51.058;3.734;2022-08-04T11:00:32;7.78;;;4.30;;
57842;SDS011;43673;51.058;3.734;2022-08-04T11:08:20;6.05;;;3.22;;
57842;SDS011;43673;51.058;3.734;2022-08-04T11:13:43;7.47;;;3.28;;
57842;SDS011;43673;51.058;3.734;2022-08-04T11:16:32;5.60;;;2.50;;
57842;SDS011;43673;51.058;3.734;2022-08-04T11:22:18;6.03;;;3.15;;
57842;SDS011;43673;51.058;3.734;2022-08-04T11:25:07;5.65;;;3.03;;
57842;SDS011;43673;51.058;3.734;2022-08-04T11:27:50;4.97;;;2.75;;
57842;SDS011;43673;51.058;3.734;2022-08-04T11:30:23;4.60;;;3.20;;
57842;SDS011;43673;51.058;3.734;2022-08-04T11:33:09;7.73;;;3.50;;
57842;SDS011;43673;51.058;3.734;2022-08-04T11:36:19;6.55;;;3.90;;
57842;SDS011;43673;51.058;3.734;2022-08-04T11:39:08;6.18;;;3.25;;
57842;SDS011;43673;51.058;3.734;2022-08-04T11:41:41;6.43;;;3.30;;
57842;SDS011;43673;51.058;3.734;2022-08-04T11:44:42;8.23;;;3.30;;
57842;SDS011;43673;51.058;3.734;2022-08-04T11:47:35;4.07;;;2.42;;
57842;SDS011;43673;51.058;3.734;2022-08-04T11:50:09;6.30;;;3.17;;
57842;SDS011;43673;51.058;3.734;2022-08-04T11:52:38;9.50;;;3.65;;
57842;SDS011;43673;51.058;3.734;2022-08-04T11:55:07;6.55;;;3.22;;
57842;SDS011;43673;51.058;3.734;2022-08-04T11:57:37;4.28;;;2.83;;
57842;SDS011;43673;51.058;3.734;2022-08-04T12:00:12;6.40;;;3.00;;
57842;SDS011;43673;51.058;3.734;2022-08-04T12:19:16;4.25;;;2.75;;
57842;SDS011;43673;51.058;3.734;2022-08-04T12:22:15;6.57;;;3.35;;
57842;SDS011;43673;51.058;3.734;2022-08-04T12:30:00;4.22;;;2.35;;
57842;SDS011;43673;51.058;3.734;2022-08-04T12:32:31;6.20;;;2.78;;
57842;SDS011;43673;51.058;3.734;2022-08-04T12:35:08;4.95;;;3.40;;
57842;SDS011;43673;51.058;3.734;2022-08-04T12:40:33;6.90;;;2.97;;
57842;SDS011;43673;51.058;3.734;2022-08-04T12:43:09;5.38;;;2.95;;
57842;SDS011;43673;51.058;3.734;2022-08-04T12:45:49;5.43;;;2.92;;
57842;SDS011;43673;51.058;3.734;2022-08-04T12:48:26;7.75;;;3.10;;
57842;SDS011;43673;51.058;3.734;2022-08-04T12:51:06;5.40;;;3.22;;
57842;SDS011;43673;51.058;3.734;2022-08-04T12:53:36;5.78;;;3.00;;
57842;SDS011;43673;51.058;3.734;2022-08-04T12:56:10;4.88;;;3.00;;
57842;SDS011;43673;51.058;3.734;2022-08-04T12:58:42;4.00;;;3.00;;
57842;SDS011;43673;51.058;3.734;2022-08-04T13:07:12;3.53;;;2.55;;
57842;SDS011;43673;51.058;3.734;2022-08-04T13:13:18;4.78;;;3.20;;
57842;SDS011;43673;51.058;3.734;2022-08-04T13:15:59;6.47;;;2.78;;
57842;SDS011;43673;51.058;3.734;2022-08-04T13:18:55;6.15;;;2.45;;
57842;SDS011;43673;51.058;3.734;2022-08-04T13:21:52;4.35;;;3.25;;
57842;SDS011;43673;51.058;3.734;2022-08-04T13:27:22;7.03;;;2.78;;
57842;SDS011;43673;51.058;3.734;2022-08-04T13:35:02;4.93;;;3.60;;
57842;SDS011;43673;51.058;3.734;2022-08-04T13:37:38;6.40;;;3.00;;
57842;SDS011;43673;51.058;3.734;2022-08-04T13:40:10;7.82;;;3.85;;
57842;SDS011;43673;51.058;3.734;2022-08-04T13:42:47;5.53;;;3.65;;
57842;SDS011;43673;51.058;3.734;2022-08-04T13:48:11;13.52;;;3.97;;
57842;SDS011;43673;51.058;3.734;2022-08-04T13:53:58;6.72;;;4.10;;
57842;SDS011;43673;51.058;3.734;2022-08-04T13:56:29;8.15;;;3.80;;
57842;SDS011;43673;51.058;3.734;2022-08-04T13:59:35;10.48;;;4.03;;
57842;SDS011;43673;51.058;3.734;2022-08-04T14:05:08;8.63;;;3.97;;
57842;SDS011;43673;51.058;3.734;2022-08-04T14:07:59;6.55;;;3.90;;
57842;SDS011;43673;51.058;3.734;2022-08-04T14:10:34;9.18;;;4.40;;
57842;SDS011;43673;51.058;3.734;2022-08-04T14:13:02;9.43;;;5.40;;
57842;SDS011;43673;51.058;3.734;2022-08-04T14:26:16;9.75;;;3.17;;
57842;SDS011;43673;51.058;3.734;2022-08-04T14:28:48;11.25;;;3.80;;
57842;SDS011;43673;51.058;3.734;2022-08-04T14:31:22;4.70;;;3.35;;
57842;SDS011;43673;51.058;3.734;2022-08-04T14:33:57;6.72;;;3.08;;
57842;SDS011;43673;51.058;3.734;2022-08-04T14:36:23;7.07;;;4.05;;
57842;SDS011;43673;51.058;3.734;2022-08-04T14:38:56;7.75;;;3.60;;
57842;SDS011;43673;51.058;3.734;2022-08-04T14:41:26;5.85;;;3.00;;
57842;SDS011;43673;51.058;3.734;2022-08-04T14:43:58;7.35;;;3.53;;
57842;SDS011;43673;51.058;3.734;2022-08-04T14:46:27;7.50;;;3.55;;
57842;SDS011;43673;51.058;3.734;2022-08-04T14:49:10;5.93;;;4.15;;
57842;SDS011;43673;51.058;3.734;2022-08-04T14:51:41;5.32;;;3.88;;
57842;SDS011;43673;51.058;3.734;2022-08-04T14:54:09;9.25;;;4.40;;
57842;SDS011;43673;51.058;3.734;2022-08-04T14:56:39;8.93;;;3.70;;
57842;SDS011;43673;51.058;3.734;2022-08-04T14:59:24;4.85;;;3.00;;
57842;SDS011;43673;51.058;3.734;2022-08-04T15:01:51;7.00;;;3.70;;
57842;SDS011;43673;51.058;3.734;2022-08-04T15:04:22;9.45;;;4.28;;
57842;SDS011;43673;51.058;3.734;2022-08-04T15:06:51;7.68;;;3.40;;
57842;SDS011;43673;51.058;3.734;2022-08-04T15:09:18;8.73;;;3.72;;
57842;SDS011;43673;51.058;3.734;2022-08-04T15:11:45;7.68;;;3.45;;
57842;SDS011;43673;51.058;3.734;2022-08-04T15:14:13;7.40;;;4.57;;
57842;SDS011;43673;51.058;3.734;2022-08-04T15:16:42;5.03;;;3.92;;
57842;SDS011;43673;51.058;3.734;2022-08-04T15:19:11;5.72;;;3.10;;
57842;SDS011;43673;51.058;3.734;2022-08-04T15:21:40;10.07;;;4.43;;
57842;SDS011;43673;51.058;3.734;2022-08-04T15:24:06;4.03;;;3.63;;
57842;SDS011;43673;51.058;3.734;2022-08-04T15:26:48;3.75;;;3.05;;
57842;SDS011;43673;51.058;3.734;2022-08-04T15:29:22;13.77;;;3.67;;
57842;SDS011;43673;51.058;3.734;2022-08-04T15:31:52;5.93;;;3.63;;
57842;SDS011;43673;51.058;3.734;2022-08-04T15:34:20;5.55;;;3.75;;
57842;SDS011;43673;51.058;3.734;2022-08-04T15:47:41;8.00;;;4.00;;
57842;SDS011;43673;51.058;3.734;2022-08-04T15:50:26;7.97;;;3.60;;
57842;SDS011;43673;51.058;3.734;2022-08-04T15:53:02;5.93;;;3.50;;
57842;SDS011;43673;51.058;3.734;2022-08-04T15:55:42;4.78;;;3.05;;
57842;SDS011;43673;51.058;3.734;2022-08-04T15:58:13;9.55;;;3.85;;
57842;SDS011;43673;51.058;3.734;2022-08-04T16:22:29;8.13;;;4.40;;
57842;SDS011;43673;51.058;3.734;2022-08-04T16:24:56;10.55;;;3.97;;
57842;SDS011;43673;51.058;3.734;2022-08-04T16:27:37;8.82;;;4.68;;
57842;SDS011;43673;51.058;3.734;2022-08-04T16:49:37;5.18;;;3.22;;
57842;SDS011;43673;51.058;3.734;2022-08-04T16:52:14;8.88;;;3.83;;
57842;SDS011;43673;51.058;3.734;2022-08-04T16:57:22;7.18;;;3.92;;
57842;SDS011;43673;51.058;3.734;2022-08-04T17:00:00;5.40;;;2.85;;
57842;SDS011;43673;51.058;3.734;2022-08-04T17:02:29;6.68;;;3.03;;
57842;SDS011;43673;51.058;3.734;2022-08-04T17:05:19;6.68;;;3.75;;
57842;SDS011;43673;51.058;3.734;2022-08-04T17:07:49;5.60;;;3.45;;
57842;SDS011;43673;51.058;3.734;2022-08-04T17:10:17;4.55;;;3.50;;
57842;SDS011;43673;51.058;3.734;2022-08-04T17:12:43;6.97;;;3.42;;
57842;SDS011;43673;51.058;3.734;2022-08-04T17:15:21;8.55;;;3.60;;
57842;SDS011;43673;51.058;3.734;2022-08-04T17:17:48;7.80;;;3.40;;
57842;SDS011;43673;51.058;3.734;2022-08-04T17:23:23;8.55;;;3.78;;
57842;SDS011;43673;51.058;3.734;2022-08-04T17:26:12;7.50;;;3.20;;
57842;SDS011;43673;51.058;3.734;2022-08-04T17:28:52;5.00;;;3.53;;
57842;SDS011;43673;51.058;3.734;2022-08-04T17:31:20;8.05;;;4.28;;
57842;SDS011;43673;51.058;3.734;2022-08-04T17:33:49;7.47;;;4.05;;
57842;SDS011;43673;51.058;3.734;2022-08-04T17:36:17;4.55;;;3.45;;
57842;SDS011;43673;51.058;3.734;2022-08-04T17:38:59;5.78;;;3.80;;
57842;SDS011;43673;51.058;3.734;2022-08-04T17:46:37;10.18;;;4.50;;
57842;SDS011;43673;51.058;3.734;2022-08-04T17:49:19;4.82;;;2.95;;
57842;SDS011;43673;51.058;3.734;2022-08-04T17:51:46;10.57;;;4.20;;
57842;SDS011;43673;51.058;3.734;2022-08-04T17:54:18;4.65;;;3.55;;
57842;SDS011;43673;51.058;3.734;2022-08-04T17:56:57;6.60;;;4.00;;
57842;SDS011;43673;51.058;3.734;2022-08-04T17:59:46;7.80;;;4.38;;
57842;SDS011;43673;51.058;3.734;2022-08-04T18:02:29;4.88;;;3.17;;
57842;SDS011;43673;51.058;3.734;2022-08-04T18:05:07;7.43;;;3.47;;
57842;SDS011;43673;51.058;3.734;2022-08-04T18:07:41;6.03;;;3.30;;
57842;SDS011;43673;51.058;3.734;2022-08-04T18:10:16;7.43;;;3.88;;
57842;SDS011;43673;51.058;3.734;2022-08-04T18:12:45;6.07;;;4.47;;
57842;SDS011;43673;51.058;3.734;2022-08-04T18:15:26;8.30;;;6.10;;
57842;SDS011;43673;51.058;3.734;2022-08-04T18:23:00;11.52;;;4.10;;
57842;SDS011;43673;51.058;3.734;2022-08-04T18:25:26;5.47;;;3.78;;
57842;SDS011;43673;51.058;3.734;2022-08-04T18:27:52;11.50;;;4.05;;
57842;SDS011;43673;51.058;3.734;2022-08-04T18:30:25;11.43;;;4.57;;
57842;SDS011;43673;51.058;3.734;2022-08-04T18:32:53;7.88;;;3.83;;
57842;SDS011;43673;51.058;3.734;2022-08-04T18:35:20;10.65;;;4.60;;
57842;SDS011;43673;51.058;3.734;2022-08-04T18:37:46;9.77;;;4.35;;
57842;SDS011;43673;51.058;3.734;2022-08-04T18:40:14;10.48;;;3.58;;
57842;SDS011;43673;51.058;3.734;2022-08-04T18:42:40;7.68;;;4.20;;
57842;SDS011;43673;51.058;3.734;2022-08-04T18:45:15;10.95;;;4.68;;
57842;SDS011;43673;51.058;3.734;2022-08-04T18:47:41;10.50;;;3.53;;
57842;SDS011;43673;51.058;3.734;2022-08-04T18:50:06;4.95;;;2.78;;
57842;SDS011;43673;51.058;3.734;2022-08-04T18:52:33;6.95;;;3.67;;
57842;SDS011;43673;51.058;3.734;2022-08-04T18:55:01;10.75;;;3.70;;
57842;SDS011;43673;51.058;3.734;2022-08-04T18:57:30;8.73;;;4.35;;
57842;SDS011;43673;51.058;3.734;2022-08-04T18:59:58;7.50;;;2.70;;
57842;SDS011;43673;51.058;3.734;2022-08-04T19:02:24;6.82;;;3.92;;
57842;SDS011;43673;51.058;3.734;2022-08-04T19:04:50;8.30;;;3.33;;
57842;SDS011;43673;51.058;3.734;2022-08-04T19:07:15;10.32;;;3.80;;
57842;SDS011;43673;51.058;3.734;2022-08-04T19:09:41;9.23;;;3.47;;
57842;SDS011;43673;51.058;3.734;2022-08-04T19:12:11;4.88;;;2.97;;
57842;SDS011;43673;51.058;3.734;2022-08-04T19:14:37;4.85;;;3.10;;
57842;SDS011;43673;51.058;3.734;2022-08-04T19:17:03;9.38;;;4.13;;
57842;SDS011;43673;51.058;3.734;2022-08-04T19:19:29;9.27;;;4.20;;
57842;SDS011;43673;51.058;3.734;2022-08-04T19:21:55;6.75;;;4.03;;
57842;SDS011;43673;51.058;3.734;2022-08-04T19:24:21;10.13;;;3.53;;
57842;SDS011;43673;51.058;3.734;2022-08-04T19:26:47;9.80;;;4.90;;
57842;SDS011;43673;51.058;3.734;2022-08-04T19:29:12;6.00;;;3.65;;
57842;SDS011;43673;51.058;3.734;2022-08-04T19:31:39;7.32;;;3.58;;
57842;SDS011;43673;51.058;3.734;2022-08-04T19:34:06;8.50;;;3.45;;
57842;SDS011;43673;51.058;3.734;2022-08-04T19:36:32;4.63;;;3.45;;
57842;SDS011;43673;51.058;3.734;2022-08-04T19:39:04;7.00;;;2.90;;
57842;SDS011;43673;51.058;3.734;2022-08-04T19:41:34;6.68;;;3.50;;
57842;SDS011;43673;51.058;3.734;2022-08-04T19:44:03;5.18;;;2.40;;
57842;SDS011;43673;51.058;3.734;2022-08-04T19:46:30;7.88;;;2.70;;
57842;SDS011;43673;51.058;3.734;2022-08-04T19:48:57;4.53;;;2.67;;
57842;SDS011;43673;51.058;3.734;2022-08-04T19:51:23;4.85;;;2.22;;
57842;SDS011;43673;51.058;3.734;2022-08-04T19:53:49;2.97;;;2.22;;
57842;SDS011;43673;51.058;3.734;2022-08-04T19:56:15;4.90;;;2.67;;
57842;SDS011;43673;51.058;3.734;2022-08-04T19:58:41;4.75;;;2.55;;
57842;SDS011;43673;51.058;3.734;2022-08-04T20:01:08;5.28;;;2.60;;
57842;SDS011;43673;51.058;3.734;2022-08-04T20:03:34;5.65;;;2.95;;
57842;SDS011;43673;51.058;3.734;2022-08-04T20:06:00;4.70;;;3.13;;
57842;SDS011;43673;51.058;3.734;2022-08-04T20:08:30;6.35;;;3.53;;
57842;SDS011;43673;51.058;3.734;2022-08-04T20:10:56;5.85;;;2.67;;
57842;SDS011;43673;51.058;3.734;2022-08-04T20:13:24;4.38;;;3.05;;
57842;SDS011;43673;51.058;3.734;2022-08-04T20:15:50;7.53;;;3.00;;
57842;SDS011;43673;51.058;3.734;2022-08-04T20:18:17;4.43;;;2.60;;
57842;SDS011;43673;51.058;3.734;2022-08-04T20:20:43;6.32;;;3.20;;
57842;SDS011;43673;51.058;3.734;2022-08-04T20:23:09;4.40;;;2.35;;
57842;SDS011;43673;51.058;3.734;2022-08-04T20:25:35;6.22;;;2.50;;
57842;SDS011;43673;51.058;3.734;2022-08-04T20:28:01;6.60;;;2.50;;
57842;SDS011;43673;51.058;3.734;2022-08-04T20:30:27;3.72;;;2.63;;
57842;SDS011;43673;51.058;3.734;2022-08-04T20:32:53;4.35;;;2.78;;
57842;SDS011;43673;51.058;3.734;2022-08-04T20:35:19;5.00;;;2.50;;
57842;SDS011;43673;51.058;3.734;2022-08-04T20:37:49;6.75;;;3.22;;
57842;SDS011;43673;51.058;3.734;2022-08-04T20:40:16;5.10;;;2.50;;
57842;SDS011;43673;51.058;3.734;2022-08-04T20:42:42;9.30;;;3.05;;
57842;SDS011;43673;51.058;3.734;2022-08-04T20:45:10;4.68;;;2.45;;
57842;SDS011;43673;51.058;3.734;2022-08-04T20:47:36;5.35;;;3.05;;
57842;SDS011;43673;51.058;3.734;2022-08-04T20:50:05;4.50;;;3.05;;
57842;SDS011;43673;51.058;3.734;2022-08-04T20:52:31;6.20;;;3.30;;
57842;SDS011;43673;51.058;3.734;2022-08-04T20:54:59;10.05;;;3.00;;
57842;SDS011;43673;51.058;3.734;2022-08-04T20:57:25;8.55;;;3.13;;
57842;SDS011;43673;51.058;3.734;2022-08-04T20:59:51;6.13;;;3.50;;
57842;SDS011;43673;51.058;3.734;2022-08-04T21:02:20;9.07;;;3.28;;
57842;SDS011;43673;51.058;3.734;2022-08-04T21:04:49;5.68;;;2.75;;
57842;SDS011;43673;51.058;3.734;2022-08-04T21:07:15;10.95;;;3.75;;
57842;SDS011;43673;51.058;3.734;2022-08-04T21:09:42;8.48;;;3.53;;
57842;SDS011;43673;51.058;3.734;2022-08-04T21:12:12;6.05;;;3.25;;
57842;SDS011;43673;51.058;3.734;2022-08-04T21:14:39;3.67;;;2.88;;
57842;SDS011;43673;51.058;3.734;2022-08-04T21:17:05;7.30;;;4.20;;
57842;SDS011;43673;51.058;3.734;2022-08-04T21:19:31;8.95;;;3.28;;